sensor_id;sensor_type;location;lat;lon;timestamp;P1;durP1;ratioP1;P2;durP2;ratioP2
70455;SDS011;57916;51.996;5.180;2022-12-18T00:03:47;143.43;;;34.97;;
70455;SDS011;57916;51.996;5.180;2022-12-18T00:06:19;122.97;;;31.58;;
70455;SDS011;57916;51.996;5.180;2022-12-18T00:08:46;146.75;;;37.83;;
70455;SDS011;57916;51.996;5.180;2022-12-18T00:11:15;138.88;;;36.95;;
70455;SDS011;57916;51.996;5.180;2022-12-18T00:13:44;139.07;;;33.58;;
70455;SDS011;57916;51.996;5.180;2022-12-18T00:16:12;129.00;;;34.17;;
70455;SDS011;57916;51.996;5.180;2022-12-18T00:18:42;133.13;;;33.60;;
70455;SDS011;57916;51.996;5.180;2022-12-18T00:21:10;123.25;;;35.85;;
70455;SDS011;57916;51.996;5.180;2022-12-18T00:23:38;174.00;;;36.42;;
70455;SDS011;57916;51.996;5.180;2022-12-18T00:26:10;198.45;;;37.67;;
70455;SDS011;57916;51.996;5.180;2022-12-18T00:28:41;185.20;;;36.53;;
70455;SDS011;57916;51.996;5.180;2022-12-18T00:31:10;169.45;;;36.50;;
70455;SDS011;57916;51.996;5.180;2022-12-18T00:33:39;166.30;;;36.40;;
70455;SDS011;57916;51.996;5.180;2022-12-18T00:38:40;126.13;;;36.53;;
70455;SDS011;57916;51.996;5.180;2022-12-18T00:41:08;155.85;;;35.10;;
70455;SDS011;57916;51.996;5.180;2022-12-18T00:43:38;153.90;;;34.40;;
70455;SDS011;57916;51.996;5.180;2022-12-18T00:46:06;143.10;;;37.53;;
70455;SDS011;57916;51.996;5.180;2022-12-18T00:48:33;125.63;;;35.60;;
70455;SDS011;57916;51.996;5.180;2022-12-18T00:51:00;144.05;;;35.90;;
70455;SDS011;57916;51.996;5.180;2022-12-18T00:53:27;195.68;;;35.65;;
70455;SDS011;57916;51.996;5.180;2022-12-18T00:55:55;164.18;;;37.17;;
70455;SDS011;57916;51.996;5.180;2022-12-18T00:58:22;133.38;;;35.88;;
70455;SDS011;57916;51.996;5.180;2022-12-18T01:00:48;141.52;;;38.83;;
70455;SDS011;57916;51.996;5.180;2022-12-18T01:03:15;134.88;;;34.72;;
70455;SDS011;57916;51.996;5.180;2022-12-18T01:05:42;130.60;;;36.05;;
70455;SDS011;57916;51.996;5.180;2022-12-18T01:08:10;133.73;;;35.42;;
70455;SDS011;57916;51.996;5.180;2022-12-18T01:10:39;130.60;;;37.20;;
70455;SDS011;57916;51.996;5.180;2022-12-18T01:13:07;146.52;;;36.28;;
70455;SDS011;57916;51.996;5.180;2022-12-18T01:15:35;95.27;;;30.73;;
70455;SDS011;57916;51.996;5.180;2022-12-18T01:18:02;114.03;;;36.85;;
70455;SDS011;57916;51.996;5.180;2022-12-18T01:20:29;177.75;;;38.65;;
70455;SDS011;57916;51.996;5.180;2022-12-18T01:22:56;149.95;;;37.80;;
70455;SDS011;57916;51.996;5.180;2022-12-18T01:25:23;152.35;;;37.97;;
70455;SDS011;57916;51.996;5.180;2022-12-18T01:27:50;176.02;;;38.20;;
70455;SDS011;57916;51.996;5.180;2022-12-18T01:30:17;137.75;;;38.75;;
70455;SDS011;57916;51.996;5.180;2022-12-18T01:32:44;126.95;;;36.10;;
70455;SDS011;57916;51.996;5.180;2022-12-18T01:35:11;106.25;;;30.77;;
70455;SDS011;57916;51.996;5.180;2022-12-18T01:37:38;106.73;;;34.37;;
70455;SDS011;57916;51.996;5.180;2022-12-18T01:40:05;103.72;;;34.65;;
70455;SDS011;57916;51.996;5.180;2022-12-18T01:42:32;105.60;;;34.92;;
70455;SDS011;57916;51.996;5.180;2022-12-18T01:45:04;114.45;;;35.03;;
70455;SDS011;57916;51.996;5.180;2022-12-18T01:47:47;106.10;;;37.30;;
70455;SDS011;57916;51.996;5.180;2022-12-18T01:50:23;108.20;;;36.40;;
70455;SDS011;57916;51.996;5.180;2022-12-18T01:55:37;102.78;;;36.22;;
70455;SDS011;57916;51.996;5.180;2022-12-18T01:58:09;93.47;;;34.22;;
70455;SDS011;57916;51.996;5.180;2022-12-18T02:00:36;92.25;;;34.90;;
70455;SDS011;57916;51.996;5.180;2022-12-18T02:03:03;100.00;;;35.63;;
70455;SDS011;57916;51.996;5.180;2022-12-18T02:08:26;99.65;;;35.47;;
70455;SDS011;57916;51.996;5.180;2022-12-18T02:11:58;96.30;;;33.80;;
70455;SDS011;57916;51.996;5.180;2022-12-18T02:17:05;88.53;;;33.93;;
70455;SDS011;57916;51.996;5.180;2022-12-18T02:19:44;87.05;;;32.45;;
70455;SDS011;57916;51.996;5.180;2022-12-18T02:27:48;78.95;;;29.90;;
70455;SDS011;57916;51.996;5.180;2022-12-18T02:30:19;78.03;;;31.67;;
70455;SDS011;57916;51.996;5.180;2022-12-18T02:32:47;77.82;;;32.67;;
70455;SDS011;57916;51.996;5.180;2022-12-18T02:35:20;76.72;;;30.92;;
70455;SDS011;57916;51.996;5.180;2022-12-18T02:37:54;78.35;;;31.63;;
70455;SDS011;57916;51.996;5.180;2022-12-18T02:40:23;78.43;;;31.73;;
70455;SDS011;57916;51.996;5.180;2022-12-18T02:42:53;69.85;;;30.05;;
70455;SDS011;57916;51.996;5.180;2022-12-18T02:45:20;69.70;;;29.27;;
70455;SDS011;57916;51.996;5.180;2022-12-18T02:47:48;76.57;;;30.47;;
70455;SDS011;57916;51.996;5.180;2022-12-18T03:05:05;76.30;;;29.98;;
70455;SDS011;57916;51.996;5.180;2022-12-18T03:07:05;72.70;;;30.40;;
70455;SDS011;57916;51.996;5.180;2022-12-18T03:09:39;68.28;;;29.92;;
70455;SDS011;57916;51.996;5.180;2022-12-18T03:12:30;73.75;;;30.60;;
70455;SDS011;57916;51.996;5.180;2022-12-18T03:17:31;74.00;;;31.30;;
70455;SDS011;57916;51.996;5.180;2022-12-18T03:20:06;69.93;;;30.25;;
70455;SDS011;57916;51.996;5.180;2022-12-18T03:22:38;68.88;;;30.00;;
70455;SDS011;57916;51.996;5.180;2022-12-18T03:25:09;61.75;;;25.60;;
70455;SDS011;57916;51.996;5.180;2022-12-18T03:27:41;58.97;;;26.60;;
70455;SDS011;57916;51.996;5.180;2022-12-18T03:30:14;70.72;;;29.42;;
70455;SDS011;57916;51.996;5.180;2022-12-18T03:35:53;65.68;;;29.48;;
70455;SDS011;57916;51.996;5.180;2022-12-18T03:38:21;71.27;;;31.13;;
70455;SDS011;57916;51.996;5.180;2022-12-18T03:43:40;69.78;;;30.30;;
70455;SDS011;57916;51.996;5.180;2022-12-18T03:49:16;71.93;;;30.52;;
70455;SDS011;57916;51.996;5.180;2022-12-18T03:52:02;67.80;;;29.77;;
70455;SDS011;57916;51.996;5.180;2022-12-18T03:54:33;69.93;;;31.35;;
70455;SDS011;57916;51.996;5.180;2022-12-18T03:57:10;71.13;;;31.70;;
70455;SDS011;57916;51.996;5.180;2022-12-18T03:59:52;71.32;;;31.58;;
70455;SDS011;57916;51.996;5.180;2022-12-18T04:02:28;68.90;;;31.88;;
70455;SDS011;57916;51.996;5.180;2022-12-18T04:05:00;69.27;;;30.87;;
70455;SDS011;57916;51.996;5.180;2022-12-18T04:07:33;66.40;;;29.27;;
70455;SDS011;57916;51.996;5.180;2022-12-18T04:10:01;64.68;;;28.55;;
70455;SDS011;57916;51.996;5.180;2022-12-18T04:12:30;73.28;;;33.25;;
70455;SDS011;57916;51.996;5.180;2022-12-18T04:14:58;67.83;;;32.90;;
70455;SDS011;57916;51.996;5.180;2022-12-18T04:17:25;73.53;;;32.57;;
70455;SDS011;57916;51.996;5.180;2022-12-18T04:19:52;66.97;;;32.03;;
70455;SDS011;57916;51.996;5.180;2022-12-18T04:22:19;65.13;;;30.63;;
70455;SDS011;57916;51.996;5.180;2022-12-18T04:24:50;59.47;;;29.07;;
70455;SDS011;57916;51.996;5.180;2022-12-18T04:27:26;61.03;;;28.83;;
70455;SDS011;57916;51.996;5.180;2022-12-18T04:29:53;63.17;;;29.45;;
70455;SDS011;57916;51.996;5.180;2022-12-18T04:32:20;60.13;;;28.73;;
70455;SDS011;57916;51.996;5.180;2022-12-18T04:34:48;58.28;;;29.25;;
70455;SDS011;57916;51.996;5.180;2022-12-18T04:37:15;62.60;;;28.08;;
70455;SDS011;57916;51.996;5.180;2022-12-18T04:39:43;53.33;;;26.58;;
70455;SDS011;57916;51.996;5.180;2022-12-18T04:42:18;52.92;;;25.15;;
70455;SDS011;57916;51.996;5.180;2022-12-18T04:44:45;59.63;;;28.33;;
70455;SDS011;57916;51.996;5.180;2022-12-18T04:47:11;58.38;;;27.30;;
70455;SDS011;57916;51.996;5.180;2022-12-18T04:49:38;54.65;;;26.83;;
70455;SDS011;57916;51.996;5.180;2022-12-18T04:52:05;52.38;;;24.27;;
70455;SDS011;57916;51.996;5.180;2022-12-18T04:54:33;53.55;;;24.40;;
70455;SDS011;57916;51.996;5.180;2022-12-18T04:57:00;49.97;;;24.63;;
70455;SDS011;57916;51.996;5.180;2022-12-18T04:59:27;55.58;;;24.58;;
70455;SDS011;57916;51.996;5.180;2022-12-18T05:01:54;50.17;;;23.90;;
70455;SDS011;57916;51.996;5.180;2022-12-18T05:04:21;55.67;;;24.83;;
70455;SDS011;57916;51.996;5.180;2022-12-18T05:06:48;52.22;;;25.35;;
70455;SDS011;57916;51.996;5.180;2022-12-18T05:09:15;47.83;;;23.98;;
70455;SDS011;57916;51.996;5.180;2022-12-18T05:11:42;49.78;;;23.13;;
70455;SDS011;57916;51.996;5.180;2022-12-18T05:14:10;46.05;;;23.67;;
70455;SDS011;57916;51.996;5.180;2022-12-18T05:16:37;47.17;;;23.08;;
70455;SDS011;57916;51.996;5.180;2022-12-18T05:19:04;51.45;;;23.48;;
70455;SDS011;57916;51.996;5.180;2022-12-18T05:21:30;46.80;;;22.40;;
70455;SDS011;57916;51.996;5.180;2022-12-18T05:23:57;49.75;;;22.27;;
70455;SDS011;57916;51.996;5.180;2022-12-18T05:26:24;43.53;;;22.38;;
70455;SDS011;57916;51.996;5.180;2022-12-18T05:28:51;44.20;;;21.10;;
70455;SDS011;57916;51.996;5.180;2022-12-18T05:31:18;41.88;;;20.50;;
70455;SDS011;57916;51.996;5.180;2022-12-18T05:33:45;44.63;;;20.95;;
70455;SDS011;57916;51.996;5.180;2022-12-18T05:36:12;42.45;;;20.08;;
70455;SDS011;57916;51.996;5.180;2022-12-18T05:38:39;39.88;;;20.30;;
70455;SDS011;57916;51.996;5.180;2022-12-18T05:41:07;37.70;;;20.33;;
70455;SDS011;57916;51.996;5.180;2022-12-18T05:43:35;37.00;;;19.67;;
70455;SDS011;57916;51.996;5.180;2022-12-18T05:46:05;38.73;;;20.07;;
70455;SDS011;57916;51.996;5.180;2022-12-18T05:48:33;40.53;;;19.35;;
70455;SDS011;57916;51.996;5.180;2022-12-18T05:51:05;37.30;;;19.13;;
70455;SDS011;57916;51.996;5.180;2022-12-18T05:53:36;35.08;;;17.83;;
70455;SDS011;57916;51.996;5.180;2022-12-18T05:56:05;38.15;;;18.85;;
70455;SDS011;57916;51.996;5.180;2022-12-18T05:58:34;31.77;;;16.67;;
70455;SDS011;57916;51.996;5.180;2022-12-18T06:01:11;34.13;;;17.95;;
70455;SDS011;57916;51.996;5.180;2022-12-18T06:03:46;34.83;;;18.75;;
70455;SDS011;57916;51.996;5.180;2022-12-18T06:06:14;38.38;;;18.45;;
70455;SDS011;57916;51.996;5.180;2022-12-18T06:08:42;28.17;;;14.20;;
70455;SDS011;57916;51.996;5.180;2022-12-18T06:11:12;28.67;;;14.30;;
70455;SDS011;57916;51.996;5.180;2022-12-18T06:13:39;30.23;;;15.20;;
70455;SDS011;57916;51.996;5.180;2022-12-18T06:16:06;31.88;;;16.67;;
70455;SDS011;57916;51.996;5.180;2022-12-18T06:18:37;33.40;;;16.25;;
70455;SDS011;57916;51.996;5.180;2022-12-18T06:21:04;29.55;;;15.88;;
70455;SDS011;57916;51.996;5.180;2022-12-18T06:23:31;28.10;;;17.02;;
70455;SDS011;57916;51.996;5.180;2022-12-18T06:26:07;29.33;;;16.67;;
70455;SDS011;57916;51.996;5.180;2022-12-18T06:28:36;29.88;;;14.82;;
70455;SDS011;57916;51.996;5.180;2022-12-18T06:31:03;29.67;;;16.98;;
70455;SDS011;57916;51.996;5.180;2022-12-18T06:33:31;28.40;;;16.08;;
70455;SDS011;57916;51.996;5.180;2022-12-18T06:35:59;30.65;;;17.00;;
70455;SDS011;57916;51.996;5.180;2022-12-18T06:38:32;31.57;;;17.30;;
70455;SDS011;57916;51.996;5.180;2022-12-18T06:41:00;31.25;;;16.77;;
70455;SDS011;57916;51.996;5.180;2022-12-18T06:43:27;30.70;;;16.90;;
70455;SDS011;57916;51.996;5.180;2022-12-18T06:45:58;29.40;;;16.42;;
70455;SDS011;57916;51.996;5.180;2022-12-18T06:48:26;29.10;;;15.45;;
70455;SDS011;57916;51.996;5.180;2022-12-18T06:50:53;29.13;;;15.88;;
70455;SDS011;57916;51.996;5.180;2022-12-18T06:53:20;31.45;;;17.15;;
70455;SDS011;57916;51.996;5.180;2022-12-18T06:55:47;29.40;;;16.35;;
70455;SDS011;57916;51.996;5.180;2022-12-18T06:58:15;29.73;;;15.63;;
70455;SDS011;57916;51.996;5.180;2022-12-18T07:00:42;28.20;;;16.80;;
70455;SDS011;57916;51.996;5.180;2022-12-18T07:03:09;28.15;;;16.50;;
70455;SDS011;57916;51.996;5.180;2022-12-18T07:05:40;30.20;;;17.02;;
70455;SDS011;57916;51.996;5.180;2022-12-18T07:08:07;30.90;;;16.67;;
70455;SDS011;57916;51.996;5.180;2022-12-18T07:10:42;29.75;;;16.90;;
70455;SDS011;57916;51.996;5.180;2022-12-18T07:13:14;29.90;;;16.70;;
70455;SDS011;57916;51.996;5.180;2022-12-18T07:15:42;30.02;;;17.00;;
70455;SDS011;57916;51.996;5.180;2022-12-18T07:18:12;31.08;;;16.77;;
70455;SDS011;57916;51.996;5.180;2022-12-18T07:20:39;33.50;;;16.48;;
70455;SDS011;57916;51.996;5.180;2022-12-18T07:23:06;33.28;;;17.60;;
70455;SDS011;57916;51.996;5.180;2022-12-18T07:25:36;31.35;;;17.58;;
70455;SDS011;57916;51.996;5.180;2022-12-18T07:28:04;28.08;;;16.45;;
70455;SDS011;57916;51.996;5.180;2022-12-18T07:30:31;30.30;;;17.95;;
70455;SDS011;57916;51.996;5.180;2022-12-18T07:32:58;28.10;;;16.77;;
70455;SDS011;57916;51.996;5.180;2022-12-18T07:35:24;31.40;;;17.45;;
70455;SDS011;57916;51.996;5.180;2022-12-18T07:37:51;31.42;;;17.70;;
70455;SDS011;57916;51.996;5.180;2022-12-18T07:40:18;33.28;;;18.65;;
70455;SDS011;57916;51.996;5.180;2022-12-18T07:42:45;30.17;;;17.75;;
70455;SDS011;57916;51.996;5.180;2022-12-18T07:45:12;31.85;;;17.85;;
70455;SDS011;57916;51.996;5.180;2022-12-18T07:47:39;31.73;;;17.70;;
70455;SDS011;57916;51.996;5.180;2022-12-18T07:50:07;33.08;;;18.05;;
70455;SDS011;57916;51.996;5.180;2022-12-18T07:52:34;34.83;;;18.40;;
70455;SDS011;57916;51.996;5.180;2022-12-18T07:55:01;30.93;;;17.87;;
70455;SDS011;57916;51.996;5.180;2022-12-18T07:57:29;34.47;;;19.25;;
70455;SDS011;57916;51.996;5.180;2022-12-18T08:00:15;32.42;;;18.23;;
70455;SDS011;57916;51.996;5.180;2022-12-18T08:02:42;32.53;;;17.83;;
70455;SDS011;57916;51.996;5.180;2022-12-18T08:05:10;30.42;;;17.45;;
70455;SDS011;57916;51.996;5.180;2022-12-18T08:07:37;32.20;;;17.63;;
70455;SDS011;57916;51.996;5.180;2022-12-18T08:10:04;33.22;;;19.30;;
70455;SDS011;57916;51.996;5.180;2022-12-18T08:12:32;30.98;;;18.80;;
70455;SDS011;57916;51.996;5.180;2022-12-18T08:14:59;27.92;;;16.58;;
70455;SDS011;57916;51.996;5.180;2022-12-18T08:17:26;30.80;;;17.73;;
70455;SDS011;57916;51.996;5.180;2022-12-18T08:19:53;29.67;;;16.73;;
70455;SDS011;57916;51.996;5.180;2022-12-18T08:22:20;33.05;;;17.88;;
70455;SDS011;57916;51.996;5.180;2022-12-18T08:24:47;30.75;;;17.80;;
70455;SDS011;57916;51.996;5.180;2022-12-18T08:27:14;30.70;;;17.13;;
70455;SDS011;57916;51.996;5.180;2022-12-18T08:29:57;30.58;;;17.35;;
70455;SDS011;57916;51.996;5.180;2022-12-18T08:32:27;30.30;;;18.15;;
70455;SDS011;57916;51.996;5.180;2022-12-18T08:34:54;33.17;;;17.73;;
70455;SDS011;57916;51.996;5.180;2022-12-18T08:37:21;31.33;;;17.27;;
70455;SDS011;57916;51.996;5.180;2022-12-18T08:39:48;31.10;;;17.85;;
70455;SDS011;57916;51.996;5.180;2022-12-18T08:42:15;28.52;;;15.82;;
70455;SDS011;57916;51.996;5.180;2022-12-18T08:45:00;30.35;;;17.25;;
70455;SDS011;57916;51.996;5.180;2022-12-18T08:47:27;31.63;;;19.38;;
70455;SDS011;57916;51.996;5.180;2022-12-18T08:49:55;25.95;;;15.48;;
70455;SDS011;57916;51.996;5.180;2022-12-18T08:52:21;29.88;;;16.67;;
70455;SDS011;57916;51.996;5.180;2022-12-18T08:54:48;27.08;;;16.77;;
70455;SDS011;57916;51.996;5.180;2022-12-18T08:57:16;26.30;;;16.67;;
70455;SDS011;57916;51.996;5.180;2022-12-18T08:59:43;26.33;;;15.50;;
70455;SDS011;57916;51.996;5.180;2022-12-18T09:02:10;25.20;;;15.38;;
70455;SDS011;57916;51.996;5.180;2022-12-18T09:04:38;28.20;;;17.80;;
70455;SDS011;57916;51.996;5.180;2022-12-18T09:07:06;26.40;;;15.53;;
70455;SDS011;57916;51.996;5.180;2022-12-18T09:09:33;28.03;;;17.03;;
70455;SDS011;57916;51.996;5.180;2022-12-18T09:12:00;28.00;;;16.17;;
70455;SDS011;57916;51.996;5.180;2022-12-18T09:14:27;27.40;;;14.77;;
70455;SDS011;57916;51.996;5.180;2022-12-18T09:16:53;24.88;;;15.75;;
70455;SDS011;57916;51.996;5.180;2022-12-18T09:19:21;28.67;;;16.27;;
70455;SDS011;57916;51.996;5.180;2022-12-18T09:21:48;26.43;;;15.80;;
70455;SDS011;57916;51.996;5.180;2022-12-18T09:24:15;22.27;;;14.45;;
70455;SDS011;57916;51.996;5.180;2022-12-18T09:26:47;27.10;;;16.25;;
70455;SDS011;57916;51.996;5.180;2022-12-18T09:29:17;27.55;;;15.55;;
70455;SDS011;57916;51.996;5.180;2022-12-18T09:31:44;27.02;;;17.40;;
70455;SDS011;57916;51.996;5.180;2022-12-18T09:34:11;28.40;;;16.45;;
70455;SDS011;57916;51.996;5.180;2022-12-18T09:36:38;30.63;;;16.63;;
70455;SDS011;57916;51.996;5.180;2022-12-18T09:39:05;28.58;;;17.08;;
70455;SDS011;57916;51.996;5.180;2022-12-18T09:49:18;28.08;;;16.45;;
70455;SDS011;57916;51.996;5.180;2022-12-18T09:52:09;23.50;;;15.65;;
70455;SDS011;57916;51.996;5.180;2022-12-18T09:54:41;25.17;;;16.02;;
70455;SDS011;57916;51.996;5.180;2022-12-18T09:57:12;27.55;;;16.75;;
70455;SDS011;57916;51.996;5.180;2022-12-18T09:59:41;24.92;;;14.98;;
70455;SDS011;57916;51.996;5.180;2022-12-18T10:02:14;25.48;;;15.40;;
70455;SDS011;57916;51.996;5.180;2022-12-18T10:05:04;29.98;;;16.98;;
70455;SDS011;57916;51.996;5.180;2022-12-18T10:07:38;27.65;;;16.40;;
70455;SDS011;57916;51.996;5.180;2022-12-18T10:10:16;27.80;;;16.85;;
70455;SDS011;57916;51.996;5.180;2022-12-18T10:15:36;26.77;;;15.80;;
70455;SDS011;57916;51.996;5.180;2022-12-18T10:20:48;27.33;;;16.83;;
70455;SDS011;57916;51.996;5.180;2022-12-18T10:23:39;27.25;;;17.35;;
70455;SDS011;57916;51.996;5.180;2022-12-18T10:26:16;30.33;;;17.52;;
70455;SDS011;57916;51.996;5.180;2022-12-18T10:28:44;30.35;;;17.35;;
70455;SDS011;57916;51.996;5.180;2022-12-18T10:31:19;27.55;;;15.88;;
70455;SDS011;57916;51.996;5.180;2022-12-18T10:33:50;29.45;;;17.33;;
70455;SDS011;57916;51.996;5.180;2022-12-18T10:36:17;29.10;;;17.00;;
70455;SDS011;57916;51.996;5.180;2022-12-18T10:38:44;33.90;;;16.50;;
70455;SDS011;57916;51.996;5.180;2022-12-18T10:43:47;29.33;;;17.10;;
70455;SDS011;57916;51.996;5.180;2022-12-18T10:46:15;28.20;;;15.18;;
70455;SDS011;57916;51.996;5.180;2022-12-18T10:51:24;28.88;;;16.75;;
70455;SDS011;57916;51.996;5.180;2022-12-18T10:54:04;28.52;;;17.15;;
70455;SDS011;57916;51.996;5.180;2022-12-18T10:56:38;27.13;;;15.40;;
70455;SDS011;57916;51.996;5.180;2022-12-18T10:59:07;27.90;;;17.10;;
70455;SDS011;57916;51.996;5.180;2022-12-18T11:01:55;26.43;;;16.57;;
70455;SDS011;57916;51.996;5.180;2022-12-18T11:04:25;29.38;;;17.05;;
70455;SDS011;57916;51.996;5.180;2022-12-18T11:06:53;26.47;;;15.27;;
70455;SDS011;57916;51.996;5.180;2022-12-18T11:09:28;26.45;;;16.02;;
70455;SDS011;57916;51.996;5.180;2022-12-18T11:11:58;27.42;;;15.95;;
70455;SDS011;57916;51.996;5.180;2022-12-18T11:14:31;24.90;;;15.10;;
70455;SDS011;57916;51.996;5.180;2022-12-18T11:17:00;26.52;;;15.68;;
70455;SDS011;57916;51.996;5.180;2022-12-18T11:19:57;27.10;;;15.97;;
70455;SDS011;57916;51.996;5.180;2022-12-18T11:24:59;28.13;;;15.90;;
70455;SDS011;57916;51.996;5.180;2022-12-18T11:27:54;24.83;;;15.88;;
70455;SDS011;57916;51.996;5.180;2022-12-18T11:38:50;23.52;;;14.07;;
70455;SDS011;57916;51.996;5.180;2022-12-18T11:41:13;26.35;;;15.38;;
70455;SDS011;57916;51.996;5.180;2022-12-18T11:44:26;27.17;;;16.13;;
70455;SDS011;57916;51.996;5.180;2022-12-18T11:50:23;24.80;;;15.20;;
70455;SDS011;57916;51.996;5.180;2022-12-18T11:53:02;24.80;;;14.40;;
70455;SDS011;57916;51.996;5.180;2022-12-18T12:03:39;26.27;;;15.10;;
70455;SDS011;57916;51.996;5.180;2022-12-18T12:14:16;28.95;;;16.10;;
70455;SDS011;57916;51.996;5.180;2022-12-18T12:22:35;27.95;;;16.45;;
70455;SDS011;57916;51.996;5.180;2022-12-18T12:25:25;26.60;;;16.13;;
70455;SDS011;57916;51.996;5.180;2022-12-18T12:41:14;27.80;;;16.73;;
70455;SDS011;57916;51.996;5.180;2022-12-18T12:44:08;27.77;;;16.38;;
70455;SDS011;57916;51.996;5.180;2022-12-18T12:46:41;27.05;;;16.45;;
70455;SDS011;57916;51.996;5.180;2022-12-18T12:49:17;28.65;;;15.63;;
70455;SDS011;57916;51.996;5.180;2022-12-18T12:52:10;24.67;;;14.90;;
70455;SDS011;57916;51.996;5.180;2022-12-18T12:54:40;26.75;;;16.08;;
70455;SDS011;57916;51.996;5.180;2022-12-18T12:57:27;26.80;;;15.77;;
70455;SDS011;57916;51.996;5.180;2022-12-18T13:00:11;29.77;;;16.10;;
70455;SDS011;57916;51.996;5.180;2022-12-18T13:02:47;24.88;;;15.10;;
70455;SDS011;57916;51.996;5.180;2022-12-18T13:08:05;27.70;;;15.95;;
70455;SDS011;57916;51.996;5.180;2022-12-18T13:10:36;25.30;;;14.63;;
70455;SDS011;57916;51.996;5.180;2022-12-18T13:20:50;26.80;;;16.08;;
70455;SDS011;57916;51.996;5.180;2022-12-18T13:31:10;26.25;;;16.23;;
70455;SDS011;57916;51.996;5.180;2022-12-18T13:36:54;28.45;;;15.90;;
70455;SDS011;57916;51.996;5.180;2022-12-18T13:39:24;28.37;;;15.30;;
70455;SDS011;57916;51.996;5.180;2022-12-18T13:44:35;29.98;;;15.93;;
70455;SDS011;57916;51.996;5.180;2022-12-18T13:50:00;28.52;;;15.75;;
70455;SDS011;57916;51.996;5.180;2022-12-18T13:52:37;26.38;;;15.68;;
70455;SDS011;57916;51.996;5.180;2022-12-18T13:55:10;25.70;;;14.88;;
70455;SDS011;57916;51.996;5.180;2022-12-18T13:57:42;29.15;;;17.20;;
70455;SDS011;57916;51.996;5.180;2022-12-18T14:00:43;29.63;;;16.40;;
70455;SDS011;57916;51.996;5.180;2022-12-18T14:03:23;29.17;;;16.65;;
70455;SDS011;57916;51.996;5.180;2022-12-18T14:05:58;33.78;;;16.88;;
70455;SDS011;57916;51.996;5.180;2022-12-18T14:08:32;28.67;;;15.73;;
70455;SDS011;57916;51.996;5.180;2022-12-18T14:11:03;27.90;;;17.08;;
70455;SDS011;57916;51.996;5.180;2022-12-18T14:13:37;31.33;;;16.63;;
70455;SDS011;57916;51.996;5.180;2022-12-18T14:16:11;25.80;;;15.07;;
70455;SDS011;57916;51.996;5.180;2022-12-18T14:21:29;28.83;;;16.93;;
70455;SDS011;57916;51.996;5.180;2022-12-18T14:26:34;29.08;;;17.73;;
70455;SDS011;57916;51.996;5.180;2022-12-18T14:29:17;29.20;;;16.33;;
70455;SDS011;57916;51.996;5.180;2022-12-18T14:31:50;28.70;;;16.98;;
70455;SDS011;57916;51.996;5.180;2022-12-18T14:34:52;31.23;;;17.60;;
70455;SDS011;57916;51.996;5.180;2022-12-18T14:37:21;27.50;;;16.40;;
70455;SDS011;57916;51.996;5.180;2022-12-18T14:39:57;33.72;;;18.05;;
70455;SDS011;57916;51.996;5.180;2022-12-18T14:42:36;29.83;;;17.65;;
70455;SDS011;57916;51.996;5.180;2022-12-18T14:50:44;29.80;;;17.10;;
70455;SDS011;57916;51.996;5.180;2022-12-18T14:53:22;29.70;;;17.23;;
70455;SDS011;57916;51.996;5.180;2022-12-18T14:55:55;31.70;;;18.02;;
70455;SDS011;57916;51.996;5.180;2022-12-18T14:58:22;30.38;;;17.58;;
70455;SDS011;57916;51.996;5.180;2022-12-18T15:00:49;27.77;;;15.93;;
70455;SDS011;57916;51.996;5.180;2022-12-18T15:03:20;30.00;;;17.20;;
70455;SDS011;57916;51.996;5.180;2022-12-18T15:05:48;28.75;;;16.52;;
70455;SDS011;57916;51.996;5.180;2022-12-18T15:08:34;33.08;;;17.58;;
70455;SDS011;57916;51.996;5.180;2022-12-18T15:11:02;25.88;;;15.35;;
70455;SDS011;57916;51.996;5.180;2022-12-18T15:13:37;27.92;;;14.90;;
70455;SDS011;57916;51.996;5.180;2022-12-18T15:16:04;29.00;;;15.80;;
70455;SDS011;57916;51.996;5.180;2022-12-18T15:18:41;31.30;;;15.63;;
70455;SDS011;57916;51.996;5.180;2022-12-18T15:21:14;26.92;;;16.23;;
70455;SDS011;57916;51.996;5.180;2022-12-18T15:26:16;27.98;;;15.85;;
70455;SDS011;57916;51.996;5.180;2022-12-18T15:31:29;29.30;;;15.90;;
70455;SDS011;57916;51.996;5.180;2022-12-18T15:34:08;27.23;;;15.57;;
70455;SDS011;57916;51.996;5.180;2022-12-18T15:36:44;32.47;;;17.23;;
70455;SDS011;57916;51.996;5.180;2022-12-18T15:39:11;27.53;;;15.17;;
70455;SDS011;57916;51.996;5.180;2022-12-18T15:41:39;25.80;;;15.23;;
70455;SDS011;57916;51.996;5.180;2022-12-18T15:44:22;29.95;;;15.30;;
70455;SDS011;57916;51.996;5.180;2022-12-18T15:46:50;28.33;;;15.85;;
70455;SDS011;57916;51.996;5.180;2022-12-18T15:49:17;36.20;;;15.80;;
70455;SDS011;57916;51.996;5.180;2022-12-18T15:51:44;28.63;;;15.75;;
70455;SDS011;57916;51.996;5.180;2022-12-18T15:54:13;29.42;;;16.23;;
70455;SDS011;57916;51.996;5.180;2022-12-18T15:57:04;29.60;;;16.70;;
70455;SDS011;57916;51.996;5.180;2022-12-18T15:59:52;28.00;;;15.02;;
70455;SDS011;57916;51.996;5.180;2022-12-18T16:02:22;30.45;;;16.35;;
70455;SDS011;57916;51.996;5.180;2022-12-18T16:04:50;27.80;;;15.80;;
70455;SDS011;57916;51.996;5.180;2022-12-18T16:07:18;30.37;;;16.87;;
70455;SDS011;57916;51.996;5.180;2022-12-18T16:09:50;29.13;;;15.35;;
70455;SDS011;57916;51.996;5.180;2022-12-18T16:12:18;26.33;;;15.43;;
70455;SDS011;57916;51.996;5.180;2022-12-18T16:14:49;29.10;;;15.67;;
70455;SDS011;57916;51.996;5.180;2022-12-18T16:17:16;27.70;;;15.30;;
70455;SDS011;57916;51.996;5.180;2022-12-18T16:19:43;30.17;;;16.00;;
70455;SDS011;57916;51.996;5.180;2022-12-18T16:22:24;27.92;;;16.38;;
70455;SDS011;57916;51.996;5.180;2022-12-18T16:24:53;30.85;;;18.52;;
70455;SDS011;57916;51.996;5.180;2022-12-18T16:27:21;27.58;;;15.77;;
70455;SDS011;57916;51.996;5.180;2022-12-18T16:29:48;29.13;;;15.25;;
70455;SDS011;57916;51.996;5.180;2022-12-18T16:32:17;27.85;;;16.73;;
70455;SDS011;57916;51.996;5.180;2022-12-18T16:34:45;26.85;;;15.35;;
70455;SDS011;57916;51.996;5.180;2022-12-18T16:37:13;35.90;;;17.42;;
70455;SDS011;57916;51.996;5.180;2022-12-18T16:39:41;33.40;;;16.70;;
70455;SDS011;57916;51.996;5.180;2022-12-18T16:42:16;31.98;;;16.25;;
70455;SDS011;57916;51.996;5.180;2022-12-18T16:44:46;31.70;;;16.73;;
70455;SDS011;57916;51.996;5.180;2022-12-18T16:47:14;29.70;;;16.30;;
70455;SDS011;57916;51.996;5.180;2022-12-18T16:49:41;33.60;;;17.65;;
70455;SDS011;57916;51.996;5.180;2022-12-18T16:52:11;24.15;;;14.07;;
70455;SDS011;57916;51.996;5.180;2022-12-18T16:54:39;39.67;;;17.30;;
70455;SDS011;57916;51.996;5.180;2022-12-18T16:57:06;29.83;;;15.83;;
70455;SDS011;57916;51.996;5.180;2022-12-18T16:59:34;31.27;;;16.40;;
70455;SDS011;57916;51.996;5.180;2022-12-18T17:02:02;30.77;;;16.75;;
70455;SDS011;57916;51.996;5.180;2022-12-18T17:04:29;33.23;;;16.70;;
70455;SDS011;57916;51.996;5.180;2022-12-18T17:06:56;27.40;;;15.07;;
70455;SDS011;57916;51.996;5.180;2022-12-18T17:09:23;30.15;;;16.38;;
70455;SDS011;57916;51.996;5.180;2022-12-18T17:11:55;26.63;;;14.43;;
70455;SDS011;57916;51.996;5.180;2022-12-18T17:14:23;31.85;;;17.02;;
70455;SDS011;57916;51.996;5.180;2022-12-18T17:16:53;29.95;;;16.30;;
70455;SDS011;57916;51.996;5.180;2022-12-18T17:19:40;31.83;;;16.80;;